Time;durP1;ratioP1;P1;durP2;ratioP2;P2;SDS_P1;SDS_P2;PMS_P1;PMS_P2;Temp;Humidity;BMP_temperature;BMP_pressure;BME280_temperature;BME280_humidity;BME280_pressure;Samples;Min_cycle;Max_cycle;Signal;HPM_P1;HPM_P2
2021/07/25 00:00:14;;;;;;;15.17;13.70;;;24.70;1.00;;;;;;5134290;27;20251;-53
2021/07/25 00:02:41;;;;;;;14.07;12.77;;;24.60;1.00;;;;;;5132094;27;20201;-54
2021/07/25 00:05:08;;;;;;;14.47;13.07;;;24.60;1.00;;;;;;5133913;27;20518;-56
2021/07/25 00:07:34;;;;;;;15.37;13.90;;;24.50;1.00;;;;;;5134278;27;20181;-54
2021/07/25 00:10:04;;;;;;;15.97;14.37;;;24.40;1.00;;;;;;5130431;27;20478;-55
2021/07/25 00:12:30;;;;;;;14.17;12.97;;;24.30;1.00;;;;;;5130427;27;20453;-54
2021/07/25 00:14:56;;;;;;;14.20;12.80;;;24.20;1.00;;;;;;5114363;27;20486;-54
2021/07/25 00:17:22;;;;;;;16.70;15.20;;;24.20;1.00;;;;;;5131382;27;20751;-54
2021/07/25 00:19:48;;;;;;;14.10;12.70;;;24.10;1.00;;;;;;5125022;27;20213;-53
2021/07/25 00:22:14;;;;;;;14.73;13.37;;;24.10;1.00;;;;;;5111493;27;20198;-54
2021/07/25 00:24:48;;;;;;;15.77;14.30;;;24.00;1.00;;;;;;5131393;27;20570;-54
2021/07/25 00:27:13;;;;;;;14.77;13.37;;;24.00;1.00;;;;;;5127529;27;20489;-55
2021/07/25 00:29:39;;;;;;;14.17;12.87;;;24.00;1.00;;;;;;5131734;27;20446;-55
2021/07/25 00:32:05;;;;;;;14.63;13.33;;;23.90;1.00;;;;;;5132352;27;20261;-55
2021/07/25 00:34:34;;;;;;;13.70;12.30;;;23.90;1.00;;;;;;5129612;27;20275;-56
2021/07/25 00:37:01;;;;;;;14.30;13.07;;;23.90;1.00;;;;;;5130864;27;20451;-55
2021/07/25 00:39:27;;;;;;;14.97;13.40;;;23.90;1.00;;;;;;5133750;27;20427;-55
2021/07/25 00:41:53;;;;;;;14.60;13.20;;;23.90;1.00;;;;;;5125771;27;20461;-55
2021/07/25 00:44:19;;;;;;;14.80;13.20;;;23.80;1.00;;;;;;5132766;27;20522;-54
2021/07/25 00:46:46;;;;;;;14.00;12.60;;;23.80;1.00;;;;;;5131471;27;20186;-56
2021/07/25 00:49:13;;;;;;;14.07;12.57;;;23.70;1.00;;;;;;5113565;27;20555;-55
2021/07/25 00:51:39;;;;;;;14.67;13.23;;;23.70;1.00;;;;;;5132091;27;20482;-55
2021/07/25 00:54:05;;;;;;;16.00;14.50;;;23.70;1.00;;;;;;5132311;27;20466;-54
2021/07/25 00:56:31;;;;;;;15.53;13.50;;;23.70;1.00;;;;;;5130622;27;20193;-55
2021/07/25 00:58:56;;;;;;;13.97;12.77;;;23.70;1.00;;;;;;5131428;27;21006;-54
2021/07/25 01:01:22;;;;;;;14.37;13.00;;;23.60;1.00;;;;;;5114803;27;20714;-55
2021/07/25 01:04:09;;;;;;;14.50;13.03;;;23.60;1.00;;;;;;5127029;27;20185;-54
2021/07/25 01:06:50;;;;;;;13.73;12.43;;;23.60;1.00;;;;;;5130521;27;20169;-55
2021/07/25 01:09:32;;;;;;;15.63;13.53;;;23.70;1.00;;;;;;5129350;27;20462;-55
2021/07/25 01:12:01;;;;;;;14.67;13.17;;;23.60;1.00;;;;;;5129254;27;20438;-55
2021/07/25 01:14:32;;;;;;;14.70;13.40;;;23.70;1.00;;;;;;5132447;27;20784;-54
2021/07/25 01:17:23;;;;;;;14.40;13.00;;;23.70;1.00;;;;;;5122874;27;21041;-55
2021/07/25 01:19:49;;;;;;;13.03;11.73;;;23.70;1.00;;;;;;5116967;27;20447;-54
2021/07/25 01:22:16;;;;;;;13.93;12.53;;;23.70;1.00;;;;;;5135312;27;20457;-56
2021/07/25 01:24:42;;;;;;;14.60;13.20;;;23.70;1.00;;;;;;5145777;27;21001;-54
2021/07/25 01:27:19;;;;;;;14.37;13.00;;;23.70;1.00;;;;;;5128913;27;20483;-56
2021/07/25 01:29:46;;;;;;;13.20;11.90;;;23.60;1.00;;;;;;5127122;27;20541;-54
2021/07/25 01:32:14;;;;;;;13.37;11.93;;;23.60;1.00;;;;;;5135397;27;20785;-54
2021/07/25 01:34:42;;;;;;;13.70;12.50;;;23.60;1.00;;;;;;5130422;27;20495;-56
2021/07/25 01:37:08;;;;;;;13.27;11.97;;;23.60;1.00;;;;;;5148207;27;20446;-54
2021/07/25 01:39:33;;;;;;;15.13;12.50;;;23.50;1.00;;;;;;5111291;27;20958;-53
2021/07/25 01:41:59;;;;;;;13.80;12.40;;;23.40;1.00;;;;;;5131225;27;20442;-54
2021/07/25 01:44:24;;;;;;;13.23;12.03;;;23.40;1.00;;;;;;5131990;27;20205;-56
2021/07/25 01:46:50;;;;;;;13.30;11.93;;;23.40;1.00;;;;;;5111456;27;20592;-56
2021/07/25 01:49:15;;;;;;;14.33;13.00;;;23.30;1.00;;;;;;5129641;27;20192;-55
2021/07/25 01:51:41;;;;;;;12.20;10.90;;;23.30;1.00;;;;;;5131041;27;20228;-55
2021/07/25 01:54:06;;;;;;;11.73;10.63;;;23.20;1.00;;;;;;5133719;27;20242;-54
2021/07/25 01:56:32;;;;;;;12.47;11.20;;;23.20;1.00;;;;;;5139682;27;20280;-54
2021/07/25 01:58:58;;;;;;;12.80;11.60;;;23.20;1.00;;;;;;5131009;27;20193;-55
2021/07/25 02:01:24;;;;;;;12.33;11.13;;;23.20;1.00;;;;;;5131469;27;20204;-54
2021/07/25 02:03:50;;;;;;;13.00;11.77;;;23.10;1.00;;;;;;5121573;27;20534;-55
2021/07/25 02:06:15;;;;;;;12.80;11.53;;;23.10;1.00;;;;;;5111865;27;20203;-55
2021/07/25 02:08:41;;;;;;;12.60;11.30;;;23.00;1.00;;;;;;5125987;27;20598;-54
2021/07/25 02:11:08;;;;;;;13.20;11.90;;;23.10;1.00;;;;;;5131492;27;20516;-55
2021/07/25 02:13:34;;;;;;;13.30;12.03;;;22.80;1.00;;;;;;5131051;27;20182;-54
2021/07/25 02:16:00;;;;;;;13.67;12.43;;;23.00;1.00;;;;;;5131172;27;20443;-53
2021/07/25 02:18:26;;;;;;;14.33;12.93;;;23.10;1.00;;;;;;5127447;27;20489;-55
2021/07/25 02:20:52;;;;;;;13.37;12.13;;;23.10;1.00;;;;;;5129429;27;20292;-55
2021/07/25 02:23:17;;;;;;;14.07;12.80;;;23.20;1.00;;;;;;5131978;27;20200;-55
2021/07/25 02:25:43;;;;;;;13.20;11.90;;;23.30;1.00;;;;;;5130186;27;20204;-54
2021/07/25 02:28:09;;;;;;;14.67;11.87;;;23.30;1.00;;;;;;5131629;27;20188;-54
2021/07/25 02:30:35;;;;;;;14.00;12.70;;;23.20;1.00;;;;;;5109947;27;20177;-55
2021/07/25 02:33:01;;;;;;;12.80;11.60;;;23.30;1.00;;;;;;5129370;27;20466;-54
2021/07/25 02:35:27;;;;;;;12.43;11.23;;;23.30;1.00;;;;;;5124431;27;20792;-54
2021/07/25 02:37:52;;;;;;;13.97;12.57;;;23.40;1.00;;;;;;5130485;27;20189;-54
2021/07/25 02:40:18;;;;;;;13.07;11.87;;;23.60;1.00;;;;;;5131034;27;20216;-53
2021/07/25 02:42:43;;;;;;;14.50;13.00;;;23.50;1.00;;;;;;5126022;27;20710;-54
2021/07/25 02:45:10;;;;;;;13.57;12.43;;;23.60;1.00;;;;;;5131046;27;20169;-57
2021/07/25 02:47:35;;;;;;;14.53;13.13;;;23.60;1.00;;;;;;5128615;27;20222;-53
2021/07/25 02:50:01;;;;;;;13.47;12.27;;;23.50;1.00;;;;;;5131401;27;20912;-55
2021/07/25 02:52:26;;;;;;;13.50;12.30;;;23.50;1.00;;;;;;5129320;27;20269;-55
2021/07/25 02:54:52;;;;;;;13.93;12.17;;;23.50;1.00;;;;;;5130911;27;20246;-55
2021/07/25 02:57:18;;;;;;;13.13;11.93;;;23.50;1.00;;;;;;5129167;27;20189;-56
2021/07/25 02:59:43;;;;;;;14.43;12.47;;;23.40;1.00;;;;;;5132544;27;20258;-54
2021/07/25 03:02:10;;;;;;;13.20;12.00;;;23.40;1.00;;;;;;5134329;27;20189;-55
2021/07/25 03:04:36;;;;;;;13.53;12.13;;;23.20;1.00;;;;;;5113107;27;20234;-56
2021/07/25 03:07:01;;;;;;;13.40;12.00;;;23.40;1.00;;;;;;5134071;27;20450;-54
2021/07/25 03:09:27;;;;;;;14.13;12.63;;;23.40;1.00;;;;;;5133625;27;20230;-54
2021/07/25 03:11:53;;;;;;;13.70;12.50;;;23.30;1.00;;;;;;5134088;27;20223;-54
2021/07/25 03:14:18;;;;;;;13.80;12.50;;;23.30;1.00;;;;;;5135608;27;20276;-54
2021/07/25 03:16:46;;;;;;;12.83;11.63;;;23.30;1.00;;;;;;5135203;27;20189;-54
2021/07/25 03:19:11;;;;;;;13.27;11.90;;;23.30;1.00;;;;;;5121515;27;20180;-53
2021/07/25 03:21:37;;;;;;;13.30;12.00;;;23.10;1.00;;;;;;5153656;27;20457;-55
2021/07/25 03:24:03;;;;;;;12.93;11.63;;;23.10;1.00;;;;;;5150296;27;20181;-55
2021/07/25 03:26:28;;;;;;;13.23;11.93;;;23.00;1.00;;;;;;5132926;27;20189;-55
2021/07/25 03:28:54;;;;;;;12.97;11.07;;;23.00;1.00;;;;;;5128107;27;20810;-55
2021/07/25 03:31:19;;;;;;;13.80;12.50;;;23.00;1.00;;;;;;5116568;27;20177;-56
2021/07/25 03:33:45;;;;;;;13.30;12.10;;;22.90;1.00;;;;;;5133284;27;20185;-53
2021/07/25 03:36:11;;;;;;;13.97;12.67;;;22.90;1.00;;;;;;5131791;27;20185;-55
2021/07/25 03:38:36;;;;;;;13.53;12.10;;;22.80;1.00;;;;;;5132186;27;20177;-55
2021/07/25 03:41:02;;;;;;;13.50;12.10;;;22.80;1.00;;;;;;5115414;27;20205;-54
2021/07/25 03:43:29;;;;;;;13.20;11.97;;;22.80;1.00;;;;;;5135066;27;20185;-54
2021/07/25 03:45:55;;;;;;;12.83;11.67;;;22.80;1.00;;;;;;5129945;27;20216;-54
2021/07/25 03:48:21;;;;;;;13.97;12.57;;;22.70;1.00;;;;;;5130745;27;20934;-54
2021/07/25 03:50:47;;;;;;;13.40;12.10;;;22.70;1.00;;;;;;5130465;27;20442;-55
2021/07/25 03:53:12;;;;;;;13.37;12.07;;;22.60;1.00;;;;;;5113177;27;20186;-56
2021/07/25 03:55:42;;;;;;;14.63;13.23;;;22.60;1.00;;;;;;5130299;27;20180;-55
2021/07/25 03:58:08;;;;;;;13.40;12.20;;;22.70;1.00;;;;;;5131463;27;20185;-54
2021/07/25 04:00:33;;;;;;;14.40;12.17;;;22.70;1.00;;;;;;5111620;27;20466;-54
2021/07/25 04:02:59;;;;;;;13.03;11.87;;;22.70;1.00;;;;;;5112703;27;20193;-55
2021/07/25 04:05:25;;;;;;;13.30;12.10;;;22.70;1.00;;;;;;5131656;27;20181;-54
2021/07/25 04:07:50;;;;;;;14.27;12.87;;;22.70;1.00;;;;;;5126235;27;20186;-53
2021/07/25 04:10:16;;;;;;;13.90;12.63;;;22.70;1.00;;;;;;5125546;27;20242;-53
2021/07/25 04:12:41;;;;;;;13.43;12.13;;;22.80;1.00;;;;;;5124776;27;20213;-54
2021/07/25 04:15:08;;;;;;;13.30;11.90;;;22.80;1.00;;;;;;5127271;27;20185;-55
2021/07/25 04:17:35;;;;;;;14.87;12.97;;;22.90;1.00;;;;;;5132903;27;20181;-54
2021/07/25 04:20:01;;;;;;;13.90;12.50;;;23.00;1.00;;;;;;5131288;27;20465;-55
2021/07/25 04:22:32;;;;;;;13.10;11.90;;;23.00;1.00;;;;;;5111708;27;20947;-56
2021/07/25 04:24:58;;;;;;;12.37;11.17;;;23.10;1.00;;;;;;5132144;27;20525;-54
2021/07/25 04:27:24;;;;;;;12.17;11.07;;;23.20;1.00;;;;;;5127036;27;21183;-54
2021/07/25 04:29:50;;;;;;;12.00;10.90;;;23.20;1.00;;;;;;5113254;27;20670;-53
2021/07/25 04:32:15;;;;;;;12.70;11.50;;;23.20;1.00;;;;;;5130833;27;20174;-54
2021/07/25 04:34:41;;;;;;;13.27;12.07;;;23.20;1.00;;;;;;5112195;27;20268;-55
2021/07/25 04:37:11;;;;;;;14.47;13.00;;;23.30;1.00;;;;;;5109145;27;20489;-54
2021/07/25 04:39:37;;;;;;;12.50;11.17;;;23.30;1.00;;;;;;5129535;27;20188;-54
2021/07/25 04:42:03;;;;;;;13.20;11.90;;;23.20;1.00;;;;;;5130144;27;20457;-53
2021/07/25 04:44:40;;;;;;;12.97;11.40;;;23.20;1.00;;;;;;5126322;27;20526;-55
2021/07/25 04:47:12;;;;;;;13.13;11.90;;;23.30;1.00;;;;;;5128506;27;20445;-54
2021/07/25 04:49:48;;;;;;;13.53;12.23;;;23.30;1.00;;;;;;5131010;27;20447;-54
2021/07/25 04:52:16;;;;;;;12.80;11.67;;;23.40;1.00;;;;;;5137860;27;20478;-55
2021/07/25 04:54:43;;;;;;;12.77;11.37;;;23.40;1.00;;;;;;5130479;27;20434;-55
2021/07/25 04:57:12;;;;;;;14.13;12.63;;;23.40;1.00;;;;;;5128513;27;20447;-54
2021/07/25 04:59:50;;;;;;;12.80;11.70;;;23.40;1.00;;;;;;5131148;27;20439;-54
2021/07/25 05:02:17;;;;;;;14.07;12.77;;;23.40;1.00;;;;;;5124611;27;20499;-54
2021/07/25 05:04:46;;;;;;;13.73;12.43;;;23.30;1.00;;;;;;5131217;27;20454;-56
2021/07/25 05:07:12;;;;;;;12.87;11.70;;;23.20;1.00;;;;;;5123242;27;20443;-53
2021/07/25 05:09:38;;;;;;;13.13;11.90;;;23.20;1.00;;;;;;5125923;27;20435;-55
2021/07/25 05:12:15;;;;;;;14.80;13.40;;;23.20;1.00;;;;;;5125319;27;20469;-54
2021/07/25 05:14:51;;;;;;;14.87;13.50;;;23.30;1.00;;;;;;5106338;27;20500;-55
2021/07/25 05:17:26;;;;;;;13.30;12.17;;;23.30;1.00;;;;;;5131019;27;20510;-55
2021/07/25 05:19:58;;;;;;;13.57;12.37;;;23.40;1.00;;;;;;5127405;27;20469;-54
2021/07/25 05:22:41;;;;;;;13.00;11.70;;;23.40;1.00;;;;;;5115551;27;20491;-55
2021/07/25 05:25:07;;;;;;;13.13;11.83;;;23.50;1.00;;;;;;5131026;27;20430;-54
2021/07/25 05:27:47;;;;;;;14.57;13.17;;;23.70;1.00;;;;;;5131062;27;20499;-54
2021/07/25 05:30:16;;;;;;;13.27;12.00;;;23.80;1.00;;;;;;5129381;27;20803;-54
2021/07/25 05:32:42;;;;;;;14.03;12.60;;;23.90;1.00;;;;;;5129574;27;20450;-54
2021/07/25 05:35:08;;;;;;;13.70;12.40;;;24.10;1.00;;;;;;5128161;27;20446;-54
2021/07/25 05:37:34;;;;;;;13.87;12.40;;;24.20;1.00;;;;;;5128840;27;20487;-55
2021/07/25 05:40:00;;;;;;;14.30;13.00;;;24.30;1.00;;;;;;5125527;27;20550;-54
2021/07/25 05:42:25;;;;;;;12.83;11.70;;;24.20;1.00;;;;;;5127908;27;20230;-55
2021/07/25 05:44:51;;;;;;;13.67;12.47;;;24.10;1.00;;;;;;5100682;27;20188;-55
2021/07/25 05:47:16;;;;;;;12.70;11.60;;;24.10;1.00;;;;;;5127780;27;20173;-53
2021/07/25 05:49:42;;;;;;;13.70;12.40;;;24.20;1.00;;;;;;5128730;27;20178;-54
2021/07/25 05:52:08;;;;;;;12.50;11.30;;;24.00;1.00;;;;;;5126878;27;20685;-54
2021/07/25 05:54:33;;;;;;;14.33;13.00;;;23.90;1.00;;;;;;5127729;27;20268;-57
2021/07/25 05:56:59;;;;;;;13.17;11.83;;;23.90;1.00;;;;;;5127359;27;20177;-55
2021/07/25 05:59:24;;;;;;;14.90;13.50;;;23.90;1.00;;;;;;5130270;27;20296;-55
2021/07/25 06:01:51;;;;;;;12.73;11.43;;;24.20;1.00;;;;;;5129618;27;20209;-55
2021/07/25 06:04:17;;;;;;;14.30;13.00;;;24.30;1.00;;;;;;5129819;27;20181;-54
2021/07/25 06:06:42;;;;;;;13.93;12.63;;;24.50;1.00;;;;;;5127208;27;20951;-54
2021/07/25 06:09:08;;;;;;;14.40;13.10;;;24.60;1.00;;;;;;5121586;27;20209;-54
2021/07/25 06:11:34;;;;;;;13.93;12.63;;;24.70;1.00;;;;;;5130977;27;20196;-54
2021/07/25 06:14:00;;;;;;;13.17;12.07;;;24.90;1.00;;;;;;5127080;27;20209;-54
2021/07/25 06:16:26;;;;;;;14.00;12.60;;;25.00;1.00;;;;;;5128600;27;20509;-55
2021/07/25 06:18:51;;;;;;;14.13;12.83;;;25.10;1.00;;;;;;5125122;27;20249;-55
2021/07/25 06:21:18;;;;;;;13.87;12.57;;;25.20;1.00;;;;;;5110649;27;20201;-54
2021/07/25 06:23:49;;;;;;;16.20;12.77;;;25.30;1.00;;;;;;5108107;27;20194;-54
2021/07/25 06:26:15;;;;;;;12.63;11.43;;;25.40;1.00;;;;;;5125536;27;20495;-54
2021/07/25 06:28:41;;;;;;;13.60;12.50;;;25.50;1.00;;;;;;5128686;27;20521;-55
2021/07/25 06:31:07;;;;;;;14.20;13.00;;;25.50;1.00;;;;;;5128064;27;20763;-55
2021/07/25 06:33:33;;;;;;;13.33;12.03;;;25.60;1.00;;;;;;5126086;27;20526;-55
2021/07/25 06:35:58;;;;;;;14.60;13.20;;;25.70;1.00;;;;;;5125574;27;20189;-54
2021/07/25 06:38:24;;;;;;;13.83;12.40;;;25.90;1.00;;;;;;5129236;27;20268;-57
2021/07/25 06:40:52;;;;;;;14.10;12.80;;;26.00;1.00;;;;;;5126536;27;20731;-56
2021/07/25 06:43:19;;;;;;;15.20;13.40;;;26.10;1.00;;;;;;5125808;27;20234;-55
2021/07/25 06:45:45;;;;;;;13.93;12.53;;;26.20;1.00;;;;;;5129436;27;20454;-54
2021/07/25 06:48:27;;;;;;;14.63;13.20;;;26.30;1.00;;;;;;5129061;27;20435;-54
2021/07/25 06:50:59;;;;;;;13.83;12.50;;;26.30;1.00;;;;;;5126656;27;20195;-54
2021/07/25 06:53:28;;;;;;;14.73;13.23;;;26.40;1.00;;;;;;5124137;27;20447;-55
2021/07/25 06:55:54;;;;;;;14.40;13.20;;;26.40;1.00;;;;;;5126453;27;20503;-55
2021/07/25 06:58:21;;;;;;;14.63;13.23;;;26.50;1.00;;;;;;5127491;27;20441;-55
2021/07/25 07:00:47;;;;;;;13.70;12.50;;;26.60;1.00;;;;;;5125153;27;20480;-55
2021/07/25 07:03:16;;;;;;;13.83;12.57;;;26.60;1.00;;;;;;5127465;27;20541;-54
2021/07/25 07:05:42;;;;;;;13.77;12.60;;;26.60;1.00;;;;;;5123523;27;20634;-54
2021/07/25 07:08:07;;;;;;;14.73;13.43;;;26.60;1.00;;;;;;5121857;27;20446;-53
2021/07/25 07:10:42;;;;;;;14.93;13.20;;;26.60;1.00;;;;;;5128478;27;20276;-53
2021/07/25 07:13:13;;;;;;;12.60;11.50;;;26.50;1.00;;;;;;5126923;27;20212;-54
2021/07/25 07:15:43;;;;;;;14.00;12.70;;;26.60;1.00;;;;;;5125084;27;20511;-54
2021/07/25 07:18:09;;;;;;;14.07;12.87;;;26.60;1.00;;;;;;5127484;27;20485;-53
2021/07/25 07:20:35;;;;;;;13.70;12.60;;;26.70;1.00;;;;;;5127610;27;20489;-55
2021/07/25 07:23:06;;;;;;;13.50;12.13;;;26.90;1.00;;;;;;5118277;27;21002;-54
2021/07/25 07:25:37;;;;;;;13.57;12.33;;;27.00;1.00;;;;;;5128002;27;20720;-55
2021/07/25 07:28:04;;;;;;;13.23;11.70;;;27.10;1.00;;;;;;5127576;27;20439;-55
2021/07/25 07:30:30;;;;;;;13.57;11.80;;;27.20;1.00;;;;;;5128733;27;20444;-55
2021/07/25 07:33:04;;;;;;;13.83;12.53;;;27.30;1.00;;;;;;5125998;27;20725;-54
2021/07/25 07:35:30;;;;;;;13.53;12.27;;;27.40;1.00;;;;;;5128335;27;20182;-55
2021/07/25 07:37:55;;;;;;;13.40;12.00;;;27.70;1.00;;;;;;5127397;27;20480;-53
2021/07/25 07:40:21;;;;;;;12.77;11.40;;;27.80;1.00;;;;;;5123822;27;20213;-54
2021/07/25 07:42:46;;;;;;;14.03;12.83;;;27.90;1.00;;;;;;5127079;27;20188;-54
2021/07/25 07:45:14;;;;;;;12.73;11.63;;;28.00;1.00;;;;;;5126055;27;21490;-55
2021/07/25 07:47:39;;;;;;;13.83;12.60;;;28.10;1.00;;;;;;5127240;27;20212;-55
2021/07/25 07:50:05;;;;;;;14.00;12.70;;;28.20;1.00;;;;;;5133027;27;20473;-56
2021/07/25 07:52:31;;;;;;;13.60;12.40;;;28.40;1.00;;;;;;5130270;27;20217;-58
2021/07/25 07:54:56;;;;;;;13.20;11.90;;;28.60;1.00;;;;;;5110908;27;20753;-55
2021/07/25 07:57:22;;;;;;;12.10;11.10;;;28.50;1.00;;;;;;5131829;27;20185;-55
2021/07/25 07:59:47;;;;;;;14.17;12.87;;;28.50;1.00;;;;;;5129624;27;20189;-55
2021/07/25 08:02:14;;;;;;;12.97;11.77;;;28.50;1.00;;;;;;5109651;27;20229;-54
2021/07/25 08:04:40;;;;;;;12.73;11.43;;;28.70;1.00;;;;;;5128646;27;20234;-55
2021/07/25 08:07:06;;;;;;;13.80;12.50;;;28.80;1.00;;;;;;5136856;27;20451;-55
2021/07/25 08:09:31;;;;;;;12.53;11.40;;;29.10;1.00;;;;;;5132617;27;20623;-55
2021/07/25 08:11:57;;;;;;;13.40;12.30;;;29.30;1.00;;;;;;5129651;27;20186;-54
2021/07/25 08:14:22;;;;;;;12.80;11.57;;;29.60;1.00;;;;;;5130421;27;20185;-55
2021/07/25 08:16:48;;;;;;;13.53;12.33;;;29.70;1.00;;;;;;5131664;27;20173;-55
2021/07/25 08:19:15;;;;;;;13.50;12.23;;;29.70;1.00;;;;;;5141310;27;20222;-55
2021/07/25 08:21:42;;;;;;;13.70;12.50;;;29.70;1.00;;;;;;5131242;27;20208;-55
2021/07/25 08:24:09;;;;;;;12.23;11.23;;;29.60;1.00;;;;;;5130627;27;20478;-55
2021/07/25 08:26:35;;;;;;;12.67;11.50;;;29.60;1.00;;;;;;5129419;27;20443;-54
2021/07/25 08:29:02;;;;;;;12.53;11.40;;;29.70;1.00;;;;;;5130655;27;20454;-54
2021/07/25 08:31:27;;;;;;;12.97;11.90;;;29.70;1.00;;;;;;5136237;27;20438;-55
2021/07/25 08:33:53;;;;;;;13.20;11.90;;;29.70;1.00;;;;;;5132714;27;20438;-54
2021/07/25 08:36:18;;;;;;;12.53;11.53;;;29.80;1.00;;;;;;5132480;27;20181;-54
2021/07/25 08:38:44;;;;;;;13.37;12.20;;;30.00;1.00;;;;;;5133469;27;20595;-54
2021/07/25 08:41:14;;;;;;;14.77;12.23;;;30.10;1.00;;;;;;5130047;27;20208;-55
2021/07/25 08:43:42;;;;;;;12.93;11.83;;;30.10;1.00;;;;;;5125795;27;20181;-54
2021/07/25 08:46:15;;;;;;;13.93;12.60;;;30.10;1.00;;;;;;5127599;27;20440;-55
2021/07/25 08:48:50;;;;;;;13.40;12.20;;;30.10;1.00;;;;;;5127262;27;20439;-54
2021/07/25 08:51:18;;;;;;;12.70;11.50;;;30.20;1.00;;;;;;5126482;27;20458;-56
2021/07/25 08:54:00;;;;;;;12.57;11.57;;;30.20;1.00;;;;;;5128402;27;20449;-55
2021/07/25 08:56:35;;;;;;;13.30;11.63;;;30.40;1.00;;;;;;5132173;27;20438;-55
2021/07/25 08:59:06;;;;;;;13.97;12.67;;;30.40;1.00;;;;;;5129566;27;20440;-54
2021/07/25 09:01:37;;;;;;;14.10;12.80;;;30.30;1.00;;;;;;5130054;27;20951;-56
2021/07/25 09:04:04;;;;;;;14.43;13.00;;;30.10;1.00;;;;;;5130371;27;20447;-55
2021/07/25 09:06:49;;;;;;;12.20;11.03;;;30.10;1.00;;;;;;5127356;27;20538;-55
2021/07/25 09:09:17;;;;;;;12.83;11.63;;;30.00;1.00;;;;;;5134883;27;20430;-54
2021/07/25 09:11:43;;;;;;;13.87;12.63;;;30.00;1.00;;;;;;5128410;27;20449;-55
2021/07/25 09:14:09;;;;;;;12.87;11.67;;;29.90;1.00;;;;;;5129951;27;20931;-55
2021/07/25 09:16:35;;;;;;;14.13;12.93;;;30.10;1.00;;;;;;5130253;27;20441;-55
2021/07/25 09:19:02;;;;;;;13.43;12.33;;;30.30;1.00;;;;;;5130114;27;20188;-54
2021/07/25 09:21:51;;;;;;;13.67;12.37;;;30.40;1.00;;;;;;5128317;27;20900;-56
2021/07/25 09:24:28;;;;;;;13.57;12.27;;;30.30;1.00;;;;;;5126967;27;20439;-54
2021/07/25 09:27:05;;;;;;;13.30;12.07;;;30.50;1.00;;;;;;5130107;27;20905;-54
2021/07/25 09:29:35;;;;;;;14.00;12.60;;;30.60;1.00;;;;;;5125214;27;20431;-57
2021/07/25 09:32:15;;;;;;;12.47;11.30;;;30.70;1.00;;;;;;5128843;27;20447;-53
2021/07/25 09:34:43;;;;;;;12.40;11.40;;;30.70;1.00;;;;;;5126886;27;20537;-54
2021/07/25 09:37:12;;;;;;;11.77;10.77;;;30.60;1.00;;;;;;5128629;27;20435;-55
2021/07/25 09:39:40;;;;;;;12.50;11.50;;;30.40;1.00;;;;;;5126417;27;20481;-53
2021/07/25 09:42:08;;;;;;;12.53;11.37;;;30.50;1.00;;;;;;5110580;27;20474;-54
2021/07/25 09:44:54;;;;;;;12.67;11.57;;;30.90;1.00;;;;;;5130166;27;20441;-54
2021/07/25 09:47:37;;;;;;;12.53;11.43;;;30.70;1.00;;;;;;5129123;27;20426;-54
2021/07/25 09:50:05;;;;;;;11.40;10.30;;;30.80;1.00;;;;;;5129979;27;20434;-54
2021/07/25 09:52:36;;;;;;;12.17;11.17;;;30.80;1.00;;;;;;5130268;27;20467;-54
2021/07/25 09:55:04;;;;;;;12.57;11.43;;;30.90;1.00;;;;;;5127693;27;20549;-53
2021/07/25 09:57:31;;;;;;;13.40;12.20;;;31.10;1.00;;;;;;5111695;27;20446;-53
2021/07/25 10:00:09;;;;;;;13.27;11.93;;;31.30;1.00;;;;;;5128710;27;20545;-54
2021/07/25 10:02:41;;;;;;;12.80;11.57;;;31.60;1.00;;;;;;5129001;27;20459;-55
2021/07/25 10:05:13;;;;;;;12.30;11.20;;;31.80;1.00;;;;;;5136228;27;20438;-53
2021/07/25 10:07:40;;;;;;;12.60;11.60;;;32.00;1.00;;;;;;5112055;27;20431;-54
2021/07/25 10:10:07;;;;;;;14.30;11.90;;;32.50;1.00;;;;;;5128765;27;20854;-54
2021/07/25 10:12:35;;;;;;;12.27;11.23;;;32.60;1.00;;;;;;5130891;27;20442;-54
2021/07/25 10:15:02;;;;;;;13.37;11.97;;;32.80;1.00;;;;;;5111636;27;20499;-54
2021/07/25 10:17:33;;;;;;;12.80;11.50;;;32.80;1.00;;;;;;5131509;27;20814;-54
2021/07/25 10:20:01;;;;;;;13.27;12.17;;;32.60;1.00;;;;;;5122464;27;20781;-55
2021/07/25 10:22:31;;;;;;;13.27;12.07;;;32.40;1.00;;;;;;5121182;27;20442;-54
2021/07/25 10:24:59;;;;;;;12.93;11.83;;;32.30;1.00;;;;;;5131976;27;20923;-55
2021/07/25 10:27:25;;;;;;;12.60;11.50;;;32.60;1.00;;;;;;5131955;27;20423;-53
2021/07/25 10:29:55;;;;;;;13.53;12.13;;;32.90;1.00;;;;;;5133106;27;20855;-53
2021/07/25 10:32:22;;;;;;;13.63;12.40;;;33.10;1.00;;;;;;5131198;27;20834;-56
2021/07/25 10:34:49;;;;;;;13.37;12.27;;;32.90;1.00;;;;;;5129750;27;20448;-54
2021/07/25 10:37:15;;;;;;;13.47;12.37;;;32.70;1.00;;;;;;5136129;27;20454;-54
2021/07/25 10:39:51;;;;;;;12.77;11.70;;;32.60;1.00;;;;;;5130167;27;20445;-54
2021/07/25 10:42:25;;;;;;;12.97;11.87;;;32.50;1.00;;;;;;5129770;27;20442;-55
2021/07/25 10:44:51;;;;;;;12.90;11.90;;;32.60;1.00;;;;;;5131187;27;20947;-56
2021/07/25 10:47:24;;;;;;;14.63;13.17;;;32.90;1.00;;;;;;5129591;27;20470;-54
2021/07/25 10:50:12;;;;;;;14.37;13.27;;;32.90;1.00;;;;;;5106028;28;20432;-54
2021/07/25 10:52:50;;;;;;;14.27;12.60;;;33.10;1.00;;;;;;5120869;27;20474;-54
2021/07/25 10:58:06;;;;;;;15.30;12.63;;;32.80;1.00;;;;;;5124314;27;20888;-55
2021/07/25 11:01:09;;;;;;;13.43;12.33;;;32.60;1.00;;;;;;5122957;27;20861;-54
2021/07/25 11:03:35;;;;;;;14.77;13.40;;;32.50;1.00;;;;;;5113453;27;20443;-54
2021/07/25 11:06:13;;;;;;;12.80;11.60;;;32.20;1.00;;;;;;5124871;27;20448;-53
2021/07/25 11:08:43;;;;;;;13.27;12.17;;;32.10;1.00;;;;;;5128290;27;20189;-55
2021/07/25 11:11:34;;;;;;;14.23;13.00;;;32.20;1.00;;;;;;5132846;27;20447;-54
2021/07/25 11:14:00;;;;;;;13.50;12.40;;;32.60;1.00;;;;;;5126834;27;20530;-54
2021/07/25 11:16:31;;;;;;;13.10;12.00;;;33.00;1.00;;;;;;5127525;27;20443;-54
2021/07/25 11:19:20;;;;;;;13.67;12.50;;;33.10;1.00;;;;;;5130704;27;20795;-54
2021/07/25 11:21:55;;;;;;;14.13;12.77;;;33.10;1.00;;;;;;5129260;27;20893;-53
2021/07/25 11:24:22;;;;;;;13.93;12.53;;;33.40;1.00;;;;;;5136632;27;20866;-54
2021/07/25 11:26:49;;;;;;;13.50;12.40;;;33.50;1.00;;;;;;5137602;27;20437;-53
2021/07/25 11:29:38;;;;;;;13.43;12.17;;;33.40;1.00;;;;;;5130953;27;20443;-55
2021/07/25 11:32:24;;;;;;;14.03;12.73;;;33.50;1.00;;;;;;5129825;27;20447;-55
2021/07/25 11:35:02;;;;;;;13.57;12.50;;;33.50;1.00;;;;;;5131460;27;20438;-54
2021/07/25 11:37:35;;;;;;;14.87;13.60;;;33.30;1.00;;;;;;5117195;27;20445;-54
2021/07/25 11:40:01;;;;;;;13.80;12.30;;;33.30;1.00;;;;;;5134884;27;20470;-54
2021/07/25 11:42:28;;;;;;;13.30;12.20;;;33.40;1.00;;;;;;5136177;27;20438;-55
2021/07/25 11:44:59;;;;;;;14.20;13.10;;;33.50;1.00;;;;;;5143231;27;20427;-54
2021/07/25 11:47:28;;;;;;;14.63;13.23;;;33.20;1.00;;;;;;5119158;27;20434;-55
2021/07/25 11:49:55;;;;;;;15.17;13.80;;;33.20;1.00;;;;;;5139133;27;20466;-53
2021/07/25 11:52:21;;;;;;;14.73;13.53;;;33.00;1.00;;;;;;5134342;27;20458;-53
2021/07/25 11:54:46;;;;;;;13.03;12.03;;;33.00;1.00;;;;;;5140570;27;20496;-53
2021/07/25 11:57:14;;;;;;;14.13;12.93;;;33.30;1.00;;;;;;5138970;27;20181;-54
2021/07/25 11:59:49;;;;;;;14.77;13.47;;;33.00;1.00;;;;;;5132498;27;20200;-54
2021/07/25 12:02:30;;;;;;;13.00;11.90;;;33.00;1.00;;;;;;5131585;27;20519;-54
2021/07/25 12:04:57;;;;;;;14.87;13.67;;;33.40;1.00;;;;;;5134506;27;20423;-54
2021/07/25 12:07:33;;;;;;;13.47;12.17;;;33.90;1.00;;;;;;5137297;27;20442;-54
2021/07/25 12:09:59;;;;;;;13.50;12.40;;;34.00;1.00;;;;;;5134724;27;20426;-55
2021/07/25 12:12:29;;;;;;;13.83;12.63;;;34.20;1.00;;;;;;5134062;27;20506;-54
2021/07/25 12:15:00;;;;;;;14.47;13.03;;;34.00;1.00;;;;;;5133568;27;20254;-55
2021/07/25 12:17:48;;;;;;;13.80;12.60;;;34.40;1.00;;;;;;5136757;27;20426;-54
2021/07/25 12:20:27;;;;;;;14.50;13.40;;;34.80;1.00;;;;;;5128408;27;20459;-54
2021/07/25 12:23:00;;;;;;;14.47;13.17;;;34.80;1.00;;;;;;5140487;27;20461;-54
2021/07/25 12:25:37;;;;;;;14.20;13.10;;;34.60;1.00;;;;;;5129517;27;20435;-54
2021/07/25 12:28:07;;;;;;;14.70;13.40;;;34.20;1.00;;;;;;5133704;27;20423;-54
2021/07/25 12:30:42;;;;;;;14.07;12.93;;;34.60;1.00;;;;;;5114266;27;20483;-55
2021/07/25 12:33:07;;;;;;;14.37;13.00;;;35.20;1.00;;;;;;5133107;27;20486;-55
2021/07/25 12:35:33;;;;;;;12.93;11.83;;;35.30;1.00;;;;;;5132250;27;20814;-55
2021/07/25 12:38:00;;;;;;;13.80;12.50;;;35.40;1.00;;;;;;5128594;27;20309;-54
2021/07/25 12:40:31;;;;;;;14.33;13.30;;;35.30;1.00;;;;;;5132833;27;20458;-54
2021/07/25 12:42:56;;;;;;;14.93;13.53;;;35.00;1.00;;;;;;5132189;27;20459;-55
2021/07/25 12:45:34;;;;;;;14.20;12.80;;;34.70;1.00;;;;;;5132836;27;20462;-56